LFMU/BZR METAR and TAF weather

Enter ICAO airport designator
Station Type Date Time Source
LFMU METAR 2019/04/19 08:00 UTC NOAA

LFMU 190800Z AUTO 11008KT 090V160 CAVOK 18/10 Q1025 NOSIG


Station Type Date Time Source
LFMU Decoded METAR 2019/04/19 08:00 UTC NOAA

Beziers / Vias, France (LFMU) 43-19N 003-21E
Apr 19, 2019 - 04:00 AM EDT / 2019.04.19 0800 UTC
Wind: from the ESE (110 degrees) at 9 MPH (8 KT) (direction variable):0
Visibility: greater than 7 mile(s):0
Temperature: 64 F (18 C)
Dew Point: 50 F (10 C)
Relative Humidity: 59%
Pressure (altimeter): 30.27 in. Hg (1025 hPa)
ob: LFMU 190800Z AUTO 11008KT 090V160 CAVOK 18/10 Q1025 NOSIG
cycle: 8

Station Type Date Time Source
LFMU TAF 2019/04/19 03:44 UTC NOAA

TAF LFMU 190200Z 1903/2003 VRB03KT CAVOK
BECMG 1908/1911 12015KT
TEMPO 1910/1916 12015G25KT

Example: see airport list